CTV446 WIII-WALL
Flight info
| Callsign | CTV446 |
|---|---|
| Flight time | N/A |
| Altitude | 35000 |
| Route | EGUKO T9 SILJA |
| Aircraft | A320/M-SDE3FGHIRWY/LB1 |
Departure
| Time | 2026-05-05 02:40 |
|---|---|
| Airport | Soekarno-Hatta International Airport (WIII) |
Arrival
| Time | N/A |
|---|---|
| Airport | Sultan Aji Muhammad Sulaiman Sepinggan International Airport (WALL) |
| Time | Latitude | Longitude | Altitude | Speed | Heading |
|---|---|---|---|---|---|
| 2026-05-05 02:02 | -6.13250 | 106.65200 | 38 ft | 0 kts | 30° |
| 2026-05-05 02:26 | -6.13254 | 106.65198 | 38 ft | 3 kts | 30° |
| 2026-05-05 02:27 | -6.13276 | 106.65183 | 38 ft | 4 kts | 40° |
| 2026-05-05 02:27 | -6.13294 | 106.65164 | 36 ft | 4 kts | 69° |
| 2026-05-05 02:27 | -6.13295 | 106.65145 | 34 ft | 1 kts | 129° |
| 2026-05-05 02:27 | -6.13294 | 106.65144 | 34 ft | 0 kts | 129° |
| 2026-05-05 02:30 | -6.13295 | 106.65146 | 34 ft | 1 kts | 129° |
| 2026-05-05 02:30 | -6.13302 | 106.65154 | 35 ft | 2 kts | 129° |
| 2026-05-05 02:30 | -6.13312 | 106.65166 | 35 ft | 2 kts | 129° |
| 2026-05-05 02:30 | -6.13322 | 106.65178 | 36 ft | 2 kts | 130° |
| 2026-05-05 02:31 | -6.13335 | 106.65215 | 38 ft | 8 kts | 94° |
| 2026-05-05 02:31 | -6.13322 | 106.65266 | 36 ft | 7 kts | 68° |
| 2026-05-05 02:31 | -6.13305 | 106.65305 | 36 ft | 5 kts | 67° |
| 2026-05-05 02:31 | -6.13293 | 106.65335 | 36 ft | 6 kts | 68° |
| 2026-05-05 02:32 | -6.13272 | 106.65396 | 38 ft | 12 kts | 78° |
| 2026-05-05 02:32 | -6.13285 | 106.65468 | 36 ft | 10 kts | 118° |
| 2026-05-05 02:32 | -6.13322 | 106.65518 | 38 ft | 8 kts | 128° |
| 2026-05-05 02:32 | -6.13354 | 106.65559 | 38 ft | 7 kts | 129° |
| 2026-05-05 02:33 | -6.13383 | 106.65594 | 38 ft | 8 kts | 131° |
| 2026-05-05 02:33 | -6.13432 | 106.65644 | 38 ft | 12 kts | 110° |
| 2026-05-05 02:33 | -6.13404 | 106.65742 | 37 ft | 17 kts | 67° |
| 2026-05-05 02:33 | -6.13359 | 106.65858 | 37 ft | 19 kts | 69° |
| 2026-05-05 02:34 | -6.13308 | 106.65983 | 35 ft | 20 kts | 68° |
| 2026-05-05 02:34 | -6.13254 | 106.66119 | 38 ft | 22 kts | 68° |
| 2026-05-05 02:34 | -6.13196 | 106.66264 | 38 ft | 23 kts | 68° |
| 2026-05-05 02:34 | -6.13134 | 106.66419 | 38 ft | 25 kts | 68° |
| 2026-05-05 02:35 | -6.13070 | 106.66578 | 38 ft | 26 kts | 68° |
| 2026-05-05 02:35 | -6.13003 | 106.66747 | 38 ft | 27 kts | 67° |
| 2026-05-05 02:35 | -6.12960 | 106.66852 | 37 ft | 27 kts | 70° |
| 2026-05-05 02:35 | -6.12950 | 106.66878 | 37 ft | 27 kts | 70° |
| 2026-05-05 02:36 | -6.12883 | 106.67049 | 38 ft | 24 kts | 68° |
| 2026-05-05 02:36 | -6.12824 | 106.67198 | 38 ft | 22 kts | 68° |
| 2026-05-05 02:36 | -6.12779 | 106.67313 | 38 ft | 14 kts | 73° |
| 2026-05-05 02:36 | -6.12824 | 106.67380 | 38 ft | 12 kts | 156° |
| 2026-05-05 02:37 | -6.12893 | 106.67407 | 38 ft | 10 kts | 160° |
| 2026-05-05 02:37 | -6.12950 | 106.67419 | 39 ft | 7 kts | 182° |
| 2026-05-05 02:37 | -6.12991 | 106.67400 | 39 ft | 6 kts | 214° |
| 2026-05-05 02:37 | -6.13022 | 106.67378 | 38 ft | 5 kts | 217° |
| 2026-05-05 02:38 | -6.13045 | 106.67360 | 38 ft | 3 kts | 217° |
| 2026-05-05 02:38 | -6.13057 | 106.67347 | 38 ft | 2 kts | 231° |
| 2026-05-05 02:38 | -6.13065 | 106.67329 | 39 ft | 4 kts | 249° |
| 2026-05-05 02:38 | -6.13065 | 106.67328 | 39 ft | 0 kts | 249° |
| 2026-05-05 02:39 | -6.13070 | 106.67314 | 37 ft | 15 kts | 249° |
| 2026-05-05 02:39 | -6.13208 | 106.66968 | 40 ft | 87 kts | 248° |
| 2026-05-05 02:39 | -6.13508 | 106.66216 | 40 ft | 142 kts | 249° |
| 2026-05-05 02:40 | -6.13930 | 106.65154 | 101 ft | 179 kts | 248° |
| 2026-05-05 02:40 | -6.14402 | 106.63981 | 679 ft | 182 kts | 249° |
| 2026-05-05 02:40 | -6.14859 | 106.62779 | 1253 ft | 188 kts | 249° |
| 2026-05-05 02:40 | -6.15363 | 106.61501 | 1563 ft | 207 kts | 248° |
| 2026-05-05 02:41 | -6.15937 | 106.60082 | 1839 ft | 231 kts | 248° |
| 2026-05-05 02:41 | -6.16557 | 106.58553 | 2454 ft | 240 kts | 247° |
| 2026-05-05 02:41 | -6.16976 | 106.57516 | 2912 ft | 244 kts | 247° |